Time;durP1;ratioP1;P1;durP2;ratioP2;P2;SDS_P1;SDS_P2;PMS_P1;PMS_P2;Temp;Humidity;BMP_temperature;BMP_pressure;BME280_temperature;BME280_humidity;BME280_pressure;Samples;Min_cycle;Max_cycle;Signal;HPM_P1;HPM_P2
2022/09/14 00:01:52;;;;;;;2.83;0.10;;;15.20;99.90;;;;;;5021187;28;20100;-86
2022/09/14 00:04:19;;;;;;;0.05;0.00;;;16.10;99.90;;;;;;5021060;28;20093;-86
2022/09/14 00:06:46;;;;;;;2.47;0.10;;;16.30;99.90;;;;;;5037969;28;20017;-84
2022/09/14 00:09:21;;;;;;;2.75;0.57;;;15.10;99.90;;;;;;5037369;28;20519;-87
2022/09/14 00:11:47;;;;;;;1.00;0.10;;;15.60;99.90;;;;;;5036826;28;20025;-85
2022/09/14 00:14:14;;;;;;;3.83;0.00;;;18.90;99.90;;;;;;5037709;28;20094;-85
2022/09/14 00:16:41;;;;;;;1.10;0.15;;;15.20;99.90;;;;;;5020187;28;20021;-84
2022/09/14 00:19:14;;;;;;;2.97;0.22;;;18.00;99.90;;;;;;5019827;28;20029;-85
2022/09/14 00:21:41;;;;;;;2.67;0.35;;;15.20;99.90;;;;;;5037860;28;20036;-85
2022/09/14 00:24:09;;;;;;;6.70;0.05;;;16.20;99.90;;;;;;5019637;28;20022;-85
2022/09/14 00:26:36;;;;;;;0.68;0.00;;;18.90;99.90;;;;;;5020344;28;20028;-86
2022/09/14 00:29:03;;;;;;;0.40;0.00;;;15.10;99.90;;;;;;5037616;28;20025;-85
2022/09/14 00:31:30;;;;;;;0.75;0.00;;;15.00;99.90;;;;;;5019506;28;20021;-86
2022/09/14 00:33:56;;;;;;;0.77;0.00;;;15.10;99.90;;;;;;5019972;28;20017;-86
2022/09/14 00:36:25;;;;;;;0.80;0.00;;;15.30;99.90;;;;;;5019559;28;20029;-85
2022/09/14 00:38:53;;;;;;;0.47;0.08;;;15.30;99.90;;;;;;5020603;28;20570;-85
2022/09/14 00:41:22;;;;;;;2.58;0.10;;;17.70;99.90;;;;;;5019605;28;20110;-85
2022/09/14 00:43:58;;;;;;;0.73;0.00;;;15.30;99.90;;;;;;5037530;28;20528;-85
2022/09/14 00:46:26;;;;;;;1.73;0.30;;;15.20;99.90;;;;;;5019487;28;20089;-85
2022/09/14 00:48:53;;;;;;;4.35;0.10;;;16.30;99.90;;;;;;5019342;28;20075;-85
2022/09/14 00:51:20;;;;;;;4.75;0.30;;;17.50;99.90;;;;;;5019654;28;20155;-86
2022/09/14 00:53:46;;;;;;;1.45;0.03;;;15.00;99.90;;;;;;5019759;28;20022;-86
2022/09/14 00:56:13;;;;;;;1.10;0.10;;;18.10;99.90;;;;;;5036562;28;20390;-85
2022/09/14 00:58:40;;;;;;;4.22;0.00;;;14.00;99.90;;;;;;5036848;28;20025;-85
2022/09/14 01:01:08;;;;;;;0.68;0.00;;;18.00;99.90;;;;;;5017959;28;20040;-85
2022/09/14 01:03:34;;;;;;;4.07;0.00;;;17.50;99.90;;;;;;5019616;28;20048;-84
2022/09/14 01:06:15;;;;;;;5.15;0.35;;;15.80;99.90;;;;;;5019237;28;20017;-86
2022/09/14 01:09:22;;;;;;;1.55;0.00;;;12.60;99.90;;;;;;5020001;28;20029;-85
2022/09/14 01:12:02;;;;;;;1.63;0.10;;;15.20;99.90;;;;;;5019010;28;20029;-84
2022/09/14 01:14:44;;;;;;;4.03;0.00;;;15.20;99.90;;;;;;5019441;28;20459;-85
2022/09/14 01:17:17;;;;;;;2.40;0.00;;;15.20;99.90;;;;;;5037838;28;20033;-85
2022/09/14 01:20:09;;;;;;;2.92;0.10;;;15.20;99.90;;;;;;5019868;28;20030;-85
2022/09/14 01:22:53;;;;;;;3.35;0.10;;;15.20;99.90;;;;;;5036890;28;20025;-85
2022/09/14 01:25:40;;;;;;;4.68;0.25;;;15.20;99.90;;;;;;5041128;28;20033;-85
2022/09/14 01:28:35;;;;;;;3.78;0.30;;;15.20;99.90;;;;;;5023244;28;20474;-86
2022/09/14 01:31:07;;;;;;;1.88;0.00;;;15.20;99.90;;;;;;5041162;28;20025;-84
2022/09/14 01:33:40;;;;;;;1.15;0.10;;;15.40;99.90;;;;;;5022798;28;20458;-85
2022/09/14 01:36:10;;;;;;;1.63;0.00;;;15.40;99.90;;;;;;5041310;28;20104;-85
2022/09/14 01:38:43;;;;;;;2.35;0.03;;;17.80;99.90;;;;;;5023071;28;20040;-86
2022/09/14 01:41:13;;;;;;;2.13;0.00;;;18.40;99.90;;;;;;5023409;28;20022;-85
2022/09/14 01:43:50;;;;;;;5.28;0.15;;;14.20;99.90;;;;;;5023158;28;20057;-85
2022/09/14 01:46:20;;;;;;;4.80;0.30;;;15.20;99.90;;;;;;5041490;28;20044;-85
2022/09/14 01:49:01;;;;;;;2.47;0.20;;;15.60;99.90;;;;;;5022825;28;20479;-86
2022/09/14 01:51:48;;;;;;;4.78;0.00;;;16.00;99.90;;;;;;5040569;28;20026;-86
2022/09/14 01:54:24;;;;;;;0.93;0.10;;;16.30;99.90;;;;;;5041252;28;20025;-85
2022/09/14 01:57:01;;;;;;;2.47;0.38;;;15.20;99.90;;;;;;5022830;28;20021;-85
2022/09/14 01:59:34;;;;;;;2.10;0.30;;;15.20;99.90;;;;;;5040250;28;20025;-85
2022/09/14 02:02:07;;;;;;;0.50;0.00;;;15.20;99.90;;;;;;5040244;28;20029;-85
2022/09/14 02:04:58;;;;;;;3.70;0.15;;;16.50;99.90;;;;;;5025621;28;20056;-84
2022/09/14 02:07:24;;;;;;;5.35;0.20;;;15.20;99.90;;;;;;5026197;28;20029;-84
2022/09/14 02:09:52;;;;;;;1.38;0.10;;;15.30;99.90;;;;;;5025352;28;20022;-84
2022/09/14 02:12:18;;;;;;;0.30;0.00;;;15.20;99.90;;;;;;5039570;28;20041;-85
2022/09/14 02:14:45;;;;;;;2.55;0.10;;;15.20;99.90;;;;;;5021981;28;20044;-89
2022/09/14 02:17:12;;;;;;;2.85;0.25;;;15.10;99.90;;;;;;5040406;28;20467;-88
2022/09/14 02:19:47;;;;;;;2.30;0.05;;;17.60;99.90;;;;;;5040484;28;20032;-89
2022/09/14 02:22:13;;;;;;;0.75;0.00;;;15.30;99.90;;;;;;5022615;28;20116;-89
2022/09/14 02:24:39;;;;;;;5.47;0.00;;;14.30;99.90;;;;;;5022018;28;20061;-89
2022/09/14 02:27:06;;;;;;;1.10;0.13;;;17.60;99.90;;;;;;5021908;28;20029;-89
2022/09/14 02:29:35;;;;;;;2.97;0.10;;;15.20;99.90;;;;;;5021577;28;20025;-89
2022/09/14 02:32:00;;;;;;;3.25;0.00;;;15.20;99.90;;;;;;5039176;28;20026;-89
2022/09/14 02:34:34;;;;;;;0.70;0.00;;;15.20;99.90;;;;;;5038905;28;20489;-89
2022/09/14 02:37:21;;;;;;;0.30;0.00;;;15.10;99.90;;;;;;5038683;28;20033;-89
2022/09/14 02:40:09;;;;;;;1.90;0.00;;;15.20;99.90;;;;;;5038893;28;20029;-90
2022/09/14 02:42:46;;;;;;;2.50;0.20;;;15.20;99.90;;;;;;5021598;28;20544;-89
2022/09/14 02:45:26;;;;;;;1.40;0.08;;;15.20;99.90;;;;;;5038886;28;20040;-89
2022/09/14 02:48:11;;;;;;;3.70;0.10;;;15.20;99.90;;;;;;5038624;28;20071;-88
2022/09/14 02:50:46;;;;;;;9.60;0.10;;;15.70;99.90;;;;;;5038664;28;20037;-89
2022/09/14 02:53:23;;;;;;;3.05;0.05;;;15.20;99.90;;;;;;5038723;28;20022;-88
2022/09/14 02:55:54;;;;;;;2.58;0.20;;;17.00;99.90;;;;;;5039003;28;20422;-89
2022/09/14 02:58:23;;;;;;;1.55;0.13;;;15.20;99.90;;;;;;5039033;28;20041;-89
2022/09/14 03:00:49;;;;;;;1.13;0.00;;;16.20;99.90;;;;;;5020720;28;20116;-88
2022/09/14 03:03:19;;;;;;;1.75;0.00;;;18.20;99.90;;;;;;5020308;28;20032;-88
2022/09/14 03:05:46;;;;;;;1.70;0.10;;;17.70;99.90;;;;;;5037763;28;20170;-88
2022/09/14 03:08:12;;;;;;;2.53;0.30;;;17.30;99.90;;;;;;5038397;28;20360;-88
2022/09/14 03:10:41;;;;;;;0.32;0.00;;;18.90;99.90;;;;;;5038003;28;20092;-90
2022/09/14 03:13:07;;;;;;;5.55;0.00;;;15.70;99.90;;;;;;5020341;28;20076;-88
2022/09/14 03:15:32;;;;;;;0.10;0.10;;;15.20;99.90;;;;;;5038195;28;20029;-88
2022/09/14 03:17:58;;;;;;;8.00;0.80;;;15.20;99.90;;;;;;5020739;28;20025;-89
2022/09/14 03:20:26;;;;;;;1.02;0.05;;;15.10;99.90;;;;;;5020742;28;20025;-89
2022/09/14 03:22:53;;;;;;;3.15;0.38;;;15.20;99.90;;;;;;5019484;28;20033;-88
2022/09/14 03:25:19;;;;;;;2.17;0.40;;;17.60;99.90;;;;;;5019473;28;20022;-89
2022/09/14 03:27:57;;;;;;;2.20;0.10;;;17.40;99.90;;;;;;5020079;28;20478;-89
2022/09/14 03:30:23;;;;;;;1.35;0.40;;;15.10;99.90;;;;;;5019338;28;20022;-88
2022/09/14 03:32:49;;;;;;;0.00;0.00;;;15.10;99.90;;;;;;5020887;28;20071;-89
2022/09/14 03:35:16;;;;;;;1.55;0.00;;;15.10;99.90;;;;;;5037359;28;20419;-89
2022/09/14 03:37:43;;;;;;;2.03;0.00;;;18.30;99.90;;;;;;5019563;28;20022;-89
2022/09/14 03:40:10;;;;;;;2.20;0.00;;;17.40;99.90;;;;;;5020011;28;20383;-89
2022/09/14 03:42:44;;;;;;;2.10;0.00;;;15.00;99.90;;;;;;5019180;28;20083;-89
2022/09/14 03:45:11;;;;;;;0.50;0.00;;;15.00;99.90;;;;;;5037905;28;20096;-89
2022/09/14 03:47:38;;;;;;;2.83;0.00;;;17.70;99.90;;;;;;5037931;28;20053;-90
2022/09/14 03:50:04;;;;;;;1.67;0.10;;;15.10;99.90;;;;;;5020328;28;20037;-89
2022/09/14 03:52:30;;;;;;;1.98;0.20;;;15.10;99.90;;;;;;5019810;28;20017;-89
2022/09/14 03:54:56;;;;;;;0.90;0.10;;;15.00;99.90;;;;;;5038448;28;20356;-89
2022/09/14 03:57:21;;;;;;;3.53;0.22;;;17.10;99.90;;;;;;5020582;28;20049;-89
2022/09/14 03:59:47;;;;;;;1.52;0.10;;;15.10;99.90;;;;;;5020348;28;20043;-90
2022/09/14 04:02:12;;;;;;;2.83;0.00;;;17.80;99.90;;;;;;5018614;28;20025;-89
2022/09/14 04:04:38;;;;;;;3.20;0.00;;;15.00;99.90;;;;;;5019345;28;20081;-89
2022/09/14 04:07:04;;;;;;;0.32;0.00;;;15.00;99.90;;;;;;5036980;28;20067;-89
2022/09/14 04:09:29;;;;;;;0.95;0.10;;;15.00;99.90;;;;;;5019812;28;20494;-89
2022/09/14 04:11:55;;;;;;;1.63;0.00;;;17.50;99.90;;;;;;5037152;28;20085;-89
2022/09/14 04:14:22;;;;;;;1.45;0.00;;;14.80;99.90;;;;;;5040373;28;20543;-89
2022/09/14 04:16:48;;;;;;;1.63;0.40;;;17.70;99.90;;;;;;5038399;28;20092;-89
2022/09/14 04:19:14;;;;;;;1.20;0.00;;;18.30;99.90;;;;;;5038447;28;20055;-89
2022/09/14 04:21:40;;;;;;;1.48;0.13;;;14.70;99.90;;;;;;5054954;28;20018;-88
2022/09/14 04:24:06;;;;;;;2.60;0.17;;;17.60;99.90;;;;;;5025512;28;20021;-89
2022/09/14 04:26:32;;;;;;;0.75;0.00;;;18.60;99.90;;;;;;5022382;28;20026;-88
2022/09/14 04:28:58;;;;;;;0.32;0.10;;;16.60;99.90;;;;;;5021462;28;20018;-88
2022/09/14 04:31:24;;;;;;;1.90;0.10;;;14.70;99.90;;;;;;5020511;28;20439;-88
2022/09/14 04:33:50;;;;;;;1.80;0.00;;;14.70;99.90;;;;;;5038514;28;20017;-88
2022/09/14 04:36:22;;;;;;;0.50;0.13;;;14.70;99.90;;;;;;5020079;28;20394;-88
2022/09/14 04:38:52;;;;;;;2.08;0.00;;;14.70;99.90;;;;;;5038047;28;20045;-88
2022/09/14 04:41:20;;;;;;;2.65;0.03;;;14.70;99.90;;;;;;5020162;28;20056;-88
2022/09/14 04:43:46;;;;;;;1.20;0.00;;;14.70;99.90;;;;;;5037940;28;20030;-88
2022/09/14 04:46:25;;;;;;;2.05;0.00;;;14.40;99.90;;;;;;5018879;28;20064;-88
2022/09/14 04:48:51;;;;;;;;;;;14.50;99.90;;;;;;5037909;28;20117;-88
2022/09/14 04:51:19;;;;;;;2.13;0.20;;;17.30;99.90;;;;;;5036820;28;20366;-89
2022/09/14 04:53:48;;;;;;;2.42;0.38;;;15.90;99.90;;;;;;5019766;28;20044;-89
2022/09/14 04:56:15;;;;;;;1.60;0.00;;;14.60;99.90;;;;;;5018731;28;20028;-89
2022/09/14 04:58:54;;;;;;;2.80;0.00;;;14.60;99.90;;;;;;5038257;28;20025;-89
2022/09/14 05:01:22;;;;;;;2.15;0.25;;;14.60;99.90;;;;;;5023805;28;20083;-89
2022/09/14 05:03:49;;;;;;;2.08;0.00;;;14.40;99.90;;;;;;5023430;28;20022;-88
2022/09/14 05:06:18;;;;;;;3.42;0.00;;;14.60;99.90;;;;;;5023518;28;20037;-89
2022/09/14 05:08:44;;;;;;;0.77;0.00;;;17.40;99.90;;;;;;5041406;28;20472;-88
2022/09/14 05:11:19;;;;;;;3.13;0.10;;;14.60;99.90;;;;;;5023186;28;20040;-88
2022/09/14 05:13:45;;;;;;;3.67;0.28;;;18.10;99.90;;;;;;5066984;22;20072;-75
2022/09/14 05:16:18;;;;;;;1.45;0.30;;;14.50;99.90;;;;;;5038012;28;20083;-75
2022/09/14 05:18:45;;;;;;;2.10;0.00;;;14.50;99.90;;;;;;5037368;28;20493;-75
2022/09/14 05:21:12;;;;;;;5.47;0.00;;;14.50;99.90;;;;;;5037221;28;20539;-75
2022/09/14 05:23:38;;;;;;;0.20;0.15;;;14.40;99.90;;;;;;5036994;28;20109;-75
2022/09/14 05:26:05;;;;;;;2.47;0.00;;;14.40;99.90;;;;;;5036819;28;20129;-75
2022/09/14 05:28:31;;;;;;;1.42;0.00;;;14.40;99.90;;;;;;5036978;28;20028;-75
2022/09/14 05:30:57;;;;;;;4.32;0.00;;;14.40;99.90;;;;;;5037281;28;20025;-75
2022/09/14 05:33:23;;;;;;;2.08;0.17;;;14.40;99.90;;;;;;5037032;28;20363;-75
2022/09/14 05:35:49;;;;;;;0.05;0.00;;;14.40;99.90;;;;;;5036742;28;20079;-75
2022/09/14 05:38:15;;;;;;;2.38;0.00;;;14.40;99.90;;;;;;5036991;28;20087;-75
2022/09/14 05:40:41;;;;;;;2.65;0.20;;;14.50;99.90;;;;;;5036755;28;20104;-75
2022/09/14 05:43:07;;;;;;;1.95;0.00;;;14.50;99.90;;;;;;5037217;28;20026;-75
2022/09/14 05:45:33;;;;;;;3.63;0.00;;;14.50;99.90;;;;;;5036801;28;20017;-75
2022/09/14 05:48:05;;;;;;;2.53;0.20;;;14.50;99.90;;;;;;5037041;28;20359;-75
2022/09/14 05:50:32;;;;;;;2.85;0.10;;;14.50;99.90;;;;;;5036621;28;20021;-75
2022/09/14 05:52:57;;;;;;;2.25;0.05;;;14.60;99.90;;;;;;5036575;28;20496;-75
2022/09/14 05:55:23;;;;;;;1.88;0.13;;;14.50;99.90;;;;;;5036300;28;20113;-75
2022/09/14 05:57:49;;;;;;;2.67;0.17;;;14.60;99.90;;;;;;5036678;28;20100;-75
2022/09/14 06:00:16;;;;;;;0.40;0.00;;;14.60;99.90;;;;;;5036452;28;20025;-75
2022/09/14 06:02:53;;;;;;;0.47;0.20;;;14.60;99.90;;;;;;5036420;28;20032;-75
2022/09/14 06:05:19;;;;;;;1.02;0.28;;;14.50;99.90;;;;;;5036119;28;20095;-75
2022/09/14 06:07:50;;;;;;;2.65;0.10;;;14.60;99.90;;;;;;5036171;28;20414;-75
2022/09/14 06:10:16;;;;;;;2.50;0.10;;;14.60;99.90;;;;;;5035492;28;20068;-75
2022/09/14 06:12:41;;;;;;;4.57;0.10;;;14.60;99.90;;;;;;5036132;28;20033;-75
2022/09/14 06:15:07;;;;;;;3.25;0.00;;;14.60;99.90;;;;;;5035797;28;20026;-75
2022/09/14 06:17:33;;;;;;;1.70;0.00;;;14.60;99.90;;;;;;5036036;28;20072;-75
2022/09/14 06:19:58;;;;;;;4.03;0.63;;;14.70;99.90;;;;;;5035830;28;20096;-75
2022/09/14 06:22:24;;;;;;;3.17;0.28;;;14.80;99.90;;;;;;5035887;28;20032;-75
2022/09/14 06:24:49;;;;;;;4.65;0.32;;;14.80;99.90;;;;;;5017801;28;20014;-75
2022/09/14 06:27:15;;;;;;;5.72;0.52;;;14.90;99.90;;;;;;5035496;28;20034;-75
2022/09/14 06:29:41;;;;;;;4.25;0.70;;;15.00;99.90;;;;;;5035586;28;20487;-75
2022/09/14 06:32:06;;;;;;;3.13;0.40;;;15.00;99.90;;;;;;5035363;28;20017;-75
2022/09/14 06:34:32;;;;;;;4.32;0.35;;;15.20;99.90;;;;;;5035461;28;20119;-75
2022/09/14 06:36:58;;;;;;;5.85;1.00;;;15.20;99.90;;;;;;5035463;28;20080;-75
2022/09/14 06:39:23;;;;;;;4.93;0.10;;;15.20;99.90;;;;;;5017779;28;20029;-75
2022/09/14 06:41:50;;;;;;;4.65;0.63;;;15.20;99.90;;;;;;5035555;28;20037;-75
2022/09/14 06:44:16;;;;;;;2.38;0.30;;;15.30;99.90;;;;;;5035783;28;20053;-75
2022/09/14 06:46:42;;;;;;;1.70;0.20;;;15.30;99.90;;;;;;5035169;28;20064;-74
2022/09/14 06:49:12;;;;;;;7.15;0.40;;;15.30;99.90;;;;;;5035227;28;20021;-73
2022/09/14 06:51:41;;;;;;;3.50;0.50;;;15.30;99.90;;;;;;5035624;28;20037;-73
2022/09/14 06:54:08;;;;;;;1.70;0.20;;;15.30;99.90;;;;;;5017065;28;20021;-73
2022/09/14 06:56:36;;;;;;;4.50;0.30;;;15.30;99.90;;;;;;5034944;28;20029;-73
2022/09/14 06:59:03;;;;;;;1.70;0.20;;;15.30;99.90;;;;;;5034980;28;20104;-73
2022/09/14 07:01:29;;;;;;;4.35;0.30;;;15.30;99.90;;;;;;5035509;28;20026;-72
2022/09/14 07:03:56;;;;;;;3.28;0.15;;;15.30;99.90;;;;;;5017008;28;20021;-73
2022/09/14 07:06:24;;;;;;;8.38;0.57;;;15.30;99.90;;;;;;5034617;28;20057;-73
2022/09/14 07:08:52;;;;;;;0.98;0.20;;;15.30;99.90;;;;;;5035088;28;20355;-73
2022/09/14 07:11:20;;;;;;;4.03;0.40;;;15.30;99.90;;;;;;5034689;28;20079;-73
2022/09/14 07:13:47;;;;;;;2.47;0.10;;;15.40;99.90;;;;;;5034570;28;20485;-73
2022/09/14 07:16:13;;;;;;;9.20;0.65;;;15.40;99.90;;;;;;5034829;28;20096;-73
2022/09/14 07:18:40;;;;;;;8.68;0.13;;;15.50;99.90;;;;;;5034751;28;20104;-73
2022/09/14 07:21:11;;;;;;;4.13;0.40;;;15.50;99.90;;;;;;5034109;28;20033;-73
2022/09/14 07:23:39;;;;;;;2.65;0.52;;;15.60;99.90;;;;;;5034409;28;20130;-73
2022/09/14 07:26:12;;;;;;;3.08;0.15;;;15.60;99.90;;;;;;5034345;28;20401;-73
2022/09/14 07:28:38;;;;;;;3.83;0.10;;;15.70;99.90;;;;;;5016700;28;20363;-72
2022/09/14 07:31:14;;;;;;;3.28;0.28;;;15.70;99.90;;;;;;5034567;28;20541;-73
2022/09/14 07:33:39;;;;;;;5.60;0.55;;;15.80;99.90;;;;;;5016640;28;20037;-73
2022/09/14 07:36:10;;;;;;;2.00;0.13;;;15.80;99.90;;;;;;5035090;28;20353;-72
2022/09/14 07:38:36;;;;;;;4.85;0.40;;;15.90;99.90;;;;;;5034163;28;20022;-73
2022/09/14 07:41:01;;;;;;;7.93;0.57;;;16.00;99.90;;;;;;5016341;28;20032;-72
2022/09/14 07:43:28;;;;;;;4.70;0.47;;;16.00;99.90;;;;;;5034378;28;20375;-73
2022/09/14 07:45:55;;;;;;;2.42;0.03;;;16.10;99.90;;;;;;5033868;28;20482;-72
2022/09/14 07:48:22;;;;;;;2.33;0.30;;;16.20;99.90;;;;;;5034132;28;20041;-73
2022/09/14 07:50:57;;;;;;;1.02;0.17;;;16.20;99.90;;;;;;5033974;28;20014;-71
2022/09/14 07:53:23;;;;;;;3.10;0.25;;;16.30;99.90;;;;;;5016199;28;20117;-72
2022/09/14 07:55:48;;;;;;;2.22;0.03;;;16.30;99.90;;;;;;5016265;28;20451;-72
2022/09/14 07:58:14;;;;;;;9.38;0.15;;;16.40;99.90;;;;;;5033931;28;20079;-72
2022/09/14 08:00:39;;;;;;;2.15;0.25;;;16.40;99.90;;;;;;5033872;28;20028;-72
2022/09/14 08:03:05;;;;;;;2.05;0.20;;;16.40;99.90;;;;;;5034106;28;20425;-71
2022/09/14 08:05:30;;;;;;;1.45;0.35;;;16.50;99.90;;;;;;5033903;28;20559;-71
2022/09/14 08:07:56;;;;;;;2.30;0.10;;;16.50;99.90;;;;;;5015984;28;20501;-72
2022/09/14 08:10:24;;;;;;;2.50;0.10;;;16.50;99.90;;;;;;5033893;28;20025;-74
2022/09/14 08:12:55;;;;;;;3.92;0.00;;;16.50;99.90;;;;;;5015977;28;20056;-74
2022/09/14 08:15:22;;;;;;;6.25;0.63;;;16.60;99.90;;;;;;5016012;28;20505;-71
2022/09/14 08:17:48;;;;;;;1.85;0.20;;;16.70;99.90;;;;;;5033677;28;20087;-74
2022/09/14 08:20:15;;;;;;;1.05;0.17;;;16.80;99.90;;;;;;5015824;28;20041;-74
2022/09/14 08:22:42;;;;;;;3.05;0.20;;;16.90;99.90;;;;;;5033877;28;20032;-74
2022/09/14 08:25:08;;;;;;;2.08;0.08;;;16.90;99.90;;;;;;5033677;28;20079;-74
2022/09/14 08:27:34;;;;;;;0.77;0.00;;;17.00;99.90;;;;;;5033505;28;20462;-74
2022/09/14 08:29:59;;;;;;;2.40;0.00;;;17.00;99.90;;;;;;5033355;28;20018;-75
2022/09/14 08:32:25;;;;;;;4.28;0.00;;;17.10;99.90;;;;;;5033228;28;20036;-74
2022/09/14 08:34:51;;;;;;;0.25;0.03;;;17.10;99.90;;;;;;5032698;28;20083;-74
2022/09/14 08:37:17;;;;;;;2.17;0.28;;;17.10;99.90;;;;;;5033212;28;20494;-74
2022/09/14 08:39:42;;;;;;;1.27;0.03;;;17.20;99.90;;;;;;5033703;28;20025;-74
2022/09/14 08:42:17;;;;;;;2.35;0.20;;;17.20;99.90;;;;;;5033602;28;20033;-74
2022/09/14 08:44:50;;;;;;;1.73;0.00;;;17.30;99.90;;;;;;5033663;28;20022;-75
2022/09/14 08:47:40;;;;;;;3.75;0.03;;;17.30;99.90;;;;;;5015738;28;20021;-72
2022/09/14 08:50:09;;;;;;;2.35;0.00;;;17.20;99.90;;;;;;5034045;28;20497;-74
2022/09/14 08:52:43;;;;;;;0.03;0.00;;;17.30;99.90;;;;;;5015607;28;20033;-75
2022/09/14 08:55:23;;;;;;;4.60;0.22;;;17.30;99.90;;;;;;5033657;28;20022;-75
2022/09/14 08:57:55;;;;;;;1.48;0.00;;;17.30;99.90;;;;;;5015411;28;20104;-75
2022/09/14 09:00:24;;;;;;;2.60;0.00;;;17.30;99.90;;;;;;5033042;28;20021;-75
2022/09/14 09:03:14;;;;;;;1.80;0.35;;;17.20;99.90;;;;;;5033064;28;20114;-76
2022/09/14 09:06:02;;;;;;;3.00;0.38;;;17.20;99.90;;;;;;5032965;28;20092;-75
2022/09/14 09:09:15;;;;;;;0.70;0.00;;;17.20;99.90;;;;;;5033075;28;20018;-75
2022/09/14 09:11:45;;;;;;;3.67;0.00;;;17.30;99.90;;;;;;4989177;28;20040;-74
2022/09/14 09:14:19;;;;;;;2.15;0.17;;;17.40;99.90;;;;;;5032861;28;20038;-74
2022/09/14 09:16:49;;;;;;;2.80;0.10;;;17.50;99.90;;;;;;5032820;28;20121;-75
2022/09/14 09:20:05;;;;;;;0.85;0.00;;;17.60;99.90;;;;;;5015202;28;20057;-75
2022/09/14 09:22:38;;;;;;;3.95;0.35;;;17.70;99.90;;;;;;4929307;28;20041;-72
2022/09/14 09:25:12;;;;;;;2.53;0.10;;;17.90;99.90;;;;;;5033173;28;20236;-71
2022/09/14 09:27:37;;;;;;;0.75;0.00;;;18.00;99.90;;;;;;5032756;28;20084;-72
2022/09/14 09:30:03;;;;;;;1.33;0.00;;;18.10;99.90;;;;;;5032932;28;20017;-71
2022/09/14 09:32:29;;;;;;;2.45;0.00;;;18.00;99.90;;;;;;5014983;28;20104;-72
2022/09/14 09:34:54;;;;;;;1.35;0.00;;;18.00;99.90;;;;;;5032883;28;20051;-72
2022/09/14 09:37:22;;;;;;;3.08;1.00;;;18.00;99.90;;;;;;5033074;28;20056;-72
2022/09/14 09:39:49;;;;;;;0.38;0.00;;;18.10;99.90;;;;;;5033089;28;20523;-72
2022/09/14 09:42:22;;;;;;;2.65;0.08;;;18.10;99.90;;;;;;5014911;28;20201;-72
2022/09/14 09:45:03;;;;;;;1.40;0.08;;;18.00;99.90;;;;;;5033629;28;20053;-72
2022/09/14 09:47:36;;;;;;;3.10;0.30;;;17.90;99.90;;;;;;5036349;28;20486;-72
2022/09/14 09:50:17;;;;;;;0.38;0.00;;;18.00;99.90;;;;;;5036168;28;20076;-72
2022/09/14 09:52:58;;;;;;;2.90;0.00;;;18.10;99.90;;;;;;5036966;28;20025;-72
2022/09/14 09:55:37;;;;;;;2.85;0.00;;;18.10;99.90;;;;;;5035986;28;20514;-72
2022/09/14 09:58:22;;;;;;;4.25;0.28;;;18.10;99.90;;;;;;5037004;28;20021;-73
2022/09/14 10:01:03;;;;;;;2.08;0.00;;;18.10;99.90;;;;;;5031773;22;20406;-75
2022/09/14 10:03:34;;;;;;;0.65;0.10;;;18.00;99.90;;;;;;5018373;28;20024;-72
2022/09/14 10:06:06;;;;;;;2.80;0.30;;;18.00;99.90;;;;;;5037480;28;20091;-74
2022/09/14 10:08:33;;;;;;;4.65;0.47;;;18.00;99.90;;;;;;5019934;28;20108;-72
2022/09/14 10:11:01;;;;;;;1.37;0.00;;;18.00;99.90;;;;;;5018386;28;20367;-75
2022/09/14 10:13:28;;;;;;;0.93;0.00;;;18.00;99.90;;;;;;5035969;28;20022;-75
2022/09/14 10:16:06;;;;;;;3.35;0.20;;;18.00;99.90;;;;;;5018293;28;20036;-75
2022/09/14 10:18:31;;;;;;;3.75;0.30;;;18.10;99.90;;;;;;5035768;28;20032;-74
2022/09/14 10:20:57;;;;;;;9.27;0.60;;;18.00;99.90;;;;;;5019612;28;20017;-71
2022/09/14 10:23:32;;;;;;;2.05;0.22;;;18.10;99.90;;;;;;5019966;28;20029;-71
2022/09/14 10:26:13;;;;;;;3.13;0.55;;;18.20;99.90;;;;;;5019264;28;20447;-71
2022/09/14 10:28:49;;;;;;;0.10;0.00;;;18.20;99.90;;;;;;5036133;28;20410;-72
2022/09/14 10:31:18;;;;;;;1.33;0.03;;;18.30;99.90;;;;;;5018206;28;20371;-72
2022/09/14 10:33:45;;;;;;;;;;;18.30;99.90;;;;;;5035761;28;20034;-72
2022/09/14 10:36:22;;;;;;;5.07;0.00;;;18.30;99.90;;;;;;5035123;28;19906;-72
2022/09/14 10:38:57;;;;;;;2.63;0.32;;;18.40;99.90;;;;;;5017548;28;20040;-72
2022/09/14 10:41:38;;;;;;;1.38;0.10;;;18.40;99.90;;;;;;5035508;28;20479;-71
2022/09/14 10:44:10;;;;;;;0.63;0.10;;;18.50;99.90;;;;;;5017608;28;20040;-72
2022/09/14 10:46:47;;;;;;;2.28;0.22;;;18.50;99.90;;;;;;5035078;28;20408;-71
2022/09/14 10:49:25;;;;;;;4.72;0.65;;;18.50;99.90;;;;;;5035154;28;20076;-72
2022/09/14 10:52:02;;;;;;;6.73;0.27;;;18.50;99.90;;;;;;5034966;28;20389;-72
2022/09/14 10:54:55;;;;;;;2.28;0.10;;;18.60;99.90;;;;;;5035139;28;20252;-72
2022/09/14 10:57:27;;;;;;;3.40;0.08;;;18.60;99.90;;;;;;5034376;28;20026;-74
2022/09/14 10:59:56;;;;;;;4.05;0.20;;;18.70;99.90;;;;;;5035278;28;20037;-72
2022/09/14 11:02:43;;;;;;;3.83;0.40;;;18.70;99.90;;;;;;5034931;28;20020;-72
2022/09/14 11:05:19;;;;;;;4.10;0.32;;;18.80;99.90;;;;;;5016937;28;20071;-72
2022/09/14 11:08:20;;;;;;;3.28;0.40;;;18.90;99.90;;;;;;5017034;28;20470;-72
2022/09/14 11:10:46;;;;;;;0.75;0.00;;;18.90;99.90;;;;;;5034881;28;20046;-72
2022/09/14 11:13:33;;;;;;;0.70;0.15;;;18.90;99.90;;;;;;5035315;28;20056;-72
2022/09/14 11:16:27;;;;;;;2.05;0.00;;;18.90;99.90;;;;;;5017316;28;20378;-72
2022/09/14 11:19:25;;;;;;;4.22;0.10;;;18.90;99.90;;;;;;5034521;28;20559;-72
2022/09/14 11:22:15;;;;;;;1.48;0.20;;;19.00;99.90;;;;;;5034751;28;20079;-72
2022/09/14 11:24:59;;;;;;;2.10;0.03;;;19.10;99.90;;;;;;4997349;28;20501;-72
2022/09/14 11:27:28;;;;;;;2.38;0.00;;;19.10;99.90;;;;;;5034374;28;20056;-72
2022/09/14 11:29:56;;;;;;;;;;;19.20;99.90;;;;;;5035296;28;20032;-72
2022/09/14 11:32:33;;;;;;;4.82;0.00;;;19.20;99.90;;;;;;5034339;28;19905;-72
2022/09/14 11:35:17;;;;;;;6.38;0.20;;;19.20;99.90;;;;;;5017140;28;20079;-72
2022/09/14 11:37:54;;;;;;;2.08;0.00;;;19.20;99.90;;;;;;5016405;28;20037;-72
2022/09/14 11:40:29;;;;;;;2.25;0.20;;;19.20;99.90;;;;;;5034646;28;20076;-72
2022/09/14 11:43:01;;;;;;;2.65;0.43;;;19.30;99.90;;;;;;5016389;28;20116;-72
2022/09/14 11:45:35;;;;;;;2.13;0.35;;;19.30;99.90;;;;;;5033880;28;20368;-72
2022/09/14 11:48:10;;;;;;;4.93;0.28;;;19.30;99.90;;;;;;5034044;28;20382;-72
2022/09/14 11:50:37;;;;;;;1.73;0.15;;;19.30;99.90;;;;;;5016307;28;20018;-72
2022/09/14 11:53:10;;;;;;;1.45;0.17;;;19.40;99.90;;;;;;5016087;28;20021;-72
2022/09/14 11:55:40;;;;;;;3.20;0.65;;;19.50;99.90;;;;;;5033789;28;20044;-72
2022/09/14 11:58:13;;;;;;;0.90;0.00;;;19.50;99.90;;;;;;5033829;28;20028;-72
2022/09/14 12:00:48;;;;;;;2.92;0.22;;;19.60;99.90;;;;;;5033883;28;20057;-71
2022/09/14 12:03:20;;;;;;;2.10;0.00;;;19.70;99.90;;;;;;5033893;28;20030;-71
2022/09/14 12:05:48;;;;;;;2.90;0.10;;;19.80;99.90;;;;;;5033534;28;20056;-71
2022/09/14 12:08:23;;;;;;;3.07;0.53;;;20.00;99.90;;;;;;5033164;28;20021;-71
2022/09/14 12:11:09;;;;;;;1.15;0.00;;;20.20;99.90;;;;;;5033633;28;20622;-71
2022/09/14 12:13:37;;;;;;;5.95;0.45;;;20.30;99.90;;;;;;5033691;28;20479;-73
2022/09/14 12:16:04;;;;;;;;;;;20.70;99.90;;;;;;5034028;28;20076;-73
2022/09/14 12:18:31;;;;;;;2.65;0.10;;;21.10;99.90;;;;;;5033747;28;19944;-73
2022/09/14 12:21:07;;;;;;;14.18;0.98;;;20.10;99.90;;;;;;5033381;28;20487;-73
2022/09/14 12:23:40;;;;;;;5.20;0.57;;;21.40;99.90;;;;;;5033613;28;20441;-73
2022/09/14 12:26:09;;;;;;;1.83;0.15;;;21.50;99.90;;;;;;5033036;28;20049;-74
2022/09/14 12:28:35;;;;;;;1.60;0.00;;;21.60;99.90;;;;;;5033511;28;20427;-74
2022/09/14 12:31:03;;;;;;;3.97;0.80;;;21.70;99.90;;;;;;5033731;28;20079;-72
2022/09/14 12:33:34;;;;;;;2.08;0.00;;;21.80;99.90;;;;;;5033523;28;20032;-72
2022/09/14 12:36:04;;;;;;;5.82;0.00;;;22.10;99.90;;;;;;5033325;28;20427;-72
2022/09/14 12:38:29;;;;;;;4.13;0.00;;;22.30;99.90;;;;;;5033459;28;20099;-71
2022/09/14 12:41:02;;;;;;;0.20;0.10;;;22.60;99.90;;;;;;5033177;28;20061;-71
2022/09/14 12:43:33;;;;;;;1.15;0.30;;;23.00;99.90;;;;;;5033445;28;20394;-74
2022/09/14 12:46:19;;;;;;;1.13;0.05;;;23.20;99.90;;;;;;5033294;28;20108;-74
2022/09/14 12:48:45;;;;;;;3.95;0.00;;;23.70;99.90;;;;;;5033794;28;20031;-74
2022/09/14 12:51:20;;;;;;;2.15;0.00;;;23.80;99.90;;;;;;5033247;28;20417;-74
2022/09/14 12:53:56;;;;;;;2.80;0.25;;;23.70;97.90;;;;;;5033164;28;20445;-75
2022/09/14 12:56:44;;;;;;;0.75;0.00;;;23.50;97.80;;;;;;5033064;28;20024;-74
2022/09/14 12:59:21;;;;;;;4.75;0.15;;;23.30;97.90;;;;;;5014947;28;20056;-75
2022/09/14 13:02:03;;;;;;;1.80;0.10;;;23.30;98.40;;;;;;5032982;28;20072;-74
2022/09/14 13:04:33;;;;;;;4.78;0.55;;;23.70;99.90;;;;;;5033044;28;20029;-74
2022/09/14 13:07:01;;;;;;;2.38;0.10;;;24.20;95.80;;;;;;5032950;28;20048;-74
2022/09/14 13:09:29;;;;;;;1.25;0.20;;;24.50;97.20;;;;;;5032911;28;20025;-74